createdAt,value
2022-07-29T00:01:49.132Z,102155.50
2022-07-29T00:04:15.847Z,102155.19
2022-07-29T00:06:42.373Z,102149.69
2022-07-29T00:09:09.127Z,102157.66
2022-07-29T00:11:35.585Z,102151.41
2022-07-29T00:14:02.103Z,102149.44
2022-07-29T00:16:28.568Z,102150.63
2022-07-29T00:18:54.989Z,102148.34
2022-07-29T00:21:21.392Z,102154.59
2022-07-29T00:23:47.775Z,102149.13
2022-07-29T00:26:14.170Z,102151.88
2022-07-29T00:28:40.521Z,102155.81
2022-07-29T00:31:07.032Z,102148.81
2022-07-29T00:33:33.451Z,102147.31
2022-07-29T00:35:59.835Z,102146.56
2022-07-29T00:38:26.430Z,102143.06
2022-07-29T00:40:52.863Z,102141.09
2022-07-29T00:43:19.267Z,102135.59
2022-07-29T00:45:45.858Z,102129.38
2022-07-29T00:48:12.326Z,102127.81
2022-07-29T00:50:39.338Z,102120.09
2022-07-29T00:53:07.282Z,102123.59
2022-07-29T00:55:33.739Z,102124.81
2022-07-29T00:58:00.640Z,102115.81
2022-07-29T01:00:28.262Z,102115.81
2022-07-29T01:02:54.849Z,102116.25
2022-07-29T01:05:22.648Z,102122.53
2022-07-29T01:07:50.080Z,102118.25
2022-07-29T01:10:17.005Z,102122.22
2022-07-29T01:12:44.607Z,102121.72
2022-07-29T01:15:11.305Z,102121.00
2022-07-29T01:17:57.834Z,102118.72
2022-07-29T01:20:42.900Z,102113.22
2022-07-29T01:23:09.306Z,102112.47
2022-07-29T01:25:45.001Z,102112.97
2022-07-29T01:28:17.542Z,102110.22
2022-07-29T01:30:45.355Z,102098.47
2022-07-29T01:33:34.701Z,102104.75
2022-07-29T01:36:02.594Z,102096.94
2022-07-29T01:38:29.105Z,102100.19
2022-07-29T01:41:00.031Z,102108.41
2022-07-29T01:43:33.591Z,102103.66
2022-07-29T01:46:01.684Z,102101.41
2022-07-29T01:48:47.321Z,102098.66
2022-07-29T01:51:33.076Z,102102.63
2022-07-29T01:54:02.280Z,102097.16
2022-07-29T01:56:32.015Z,102086.63
2022-07-29T01:58:59.518Z,102086.63
2022-07-29T02:01:26.922Z,102088.91
2022-07-29T02:03:54.005Z,102087.41
2022-07-29T02:06:22.078Z,102077.66
2022-07-29T02:08:49.715Z,102072.94
2022-07-29T02:11:16.287Z,102077.66
2022-07-29T02:13:43.361Z,102069.91
2022-07-29T02:16:10.515Z,102073.88
2022-07-29T02:18:38.074Z,102061.69
2022-07-29T02:21:04.920Z,102065.94
2022-07-29T02:23:31.838Z,102061.38
2022-07-29T02:26:17.949Z,102054.72
2022-07-29T02:28:44.678Z,102061.84
2022-07-29T02:31:11.911Z,102058.38
2022-07-29T02:33:38.525Z,102057.13
2022-07-29T02:36:05.155Z,102051.66
2022-07-29T02:38:51.349Z,102059.09
2022-07-29T02:41:19.559Z,102052.88
2022-07-29T02:43:48.355Z,102050.16
2022-07-29T02:46:28.444Z,102054.88
2022-07-29T02:49:14.364Z,102058.81
2022-07-29T02:52:01.106Z,102058.81
2022-07-29T02:54:32.020Z,102060.78
2022-07-29T02:56:59.940Z,102055.03
2022-07-29T02:59:28.114Z,102064.00
2022-07-29T03:01:56.254Z,102052.28
2022-07-29T03:04:24.332Z,102055.03
2022-07-29T03:06:51.900Z,102048.31
2022-07-29T03:09:18.600Z,102053.78
2022-07-29T03:11:50.422Z,102050.31
2022-07-29T03:14:20.774Z,102051.53
2022-07-29T03:16:48.385Z,102053.50
2022-07-29T03:19:15.075Z,102051.53
2022-07-29T03:21:41.552Z,102051.22
2022-07-29T03:24:10.509Z,102046.50
2022-07-29T03:26:37.632Z,102038.28
2022-07-29T03:29:03.989Z,102039.97
2022-07-29T03:31:30.474Z,102034.03
2022-07-29T03:33:56.975Z,102040.72
2022-07-29T03:36:23.443Z,102039.97
2022-07-29T03:38:50.231Z,102031.75
2022-07-29T03:41:17.615Z,102029.50
2022-07-29T03:43:50.670Z,102041.19
2022-07-29T03:46:17.540Z,102034.97
2022-07-29T03:48:47.084Z,102039.69
2022-07-29T03:51:13.930Z,102042.44
2022-07-29T03:53:40.402Z,102044.41
2022-07-29T03:56:07.479Z,102041.69
2022-07-29T03:58:34.156Z,102040.88
2022-07-29T04:01:00.745Z,102038.94
2022-07-29T04:03:27.449Z,102029.94
2022-07-29T04:06:04.412Z,102032.69
2022-07-29T04:08:30.814Z,102035.88
2022-07-29T04:10:57.378Z,102028.41
2022-07-29T04:13:23.829Z,102038.59
2022-07-29T04:15:50.372Z,102032.41
2022-07-29T04:18:17.413Z,102031.63
2022-07-29T04:20:43.794Z,102029.66
2022-07-29T04:23:10.284Z,102026.91
2022-07-29T04:25:40.587Z,102027.38
2022-07-29T04:28:07.359Z,102018.72
2022-07-29T04:30:34.831Z,102025.41
2022-07-29T04:33:02.069Z,102016.88
2022-07-29T04:35:28.932Z,102016.88
2022-07-29T04:37:55.435Z,102016.13
2022-07-29T04:40:21.850Z,102013.38
2022-07-29T04:42:48.356Z,102017.19
2022-07-29T04:45:16.169Z,102016.88
2022-07-29T04:47:42.884Z,102016.88
2022-07-29T04:50:09.888Z,102025.84
2022-07-29T04:52:36.334Z,102024.34
2022-07-29T04:55:03.141Z,102026.31
2022-07-29T04:57:29.560Z,102024.34
2022-07-29T04:59:55.981Z,102018.88
2022-07-29T05:02:22.917Z,102016.59
2022-07-29T05:04:49.566Z,102014.59
2022-07-29T05:07:16.114Z,102019.31
2022-07-29T05:09:42.531Z,102020.09
2022-07-29T05:12:09.075Z,102022.06
2022-07-29T05:14:35.474Z,102025.28
2022-07-29T05:17:01.848Z,102024.50
2022-07-29T05:19:28.267Z,102024.03
2022-07-29T05:21:54.646Z,102031.50
2022-07-29T05:24:21.048Z,102031.50
2022-07-29T05:26:47.487Z,102031.19
2022-07-29T05:29:44.892Z,102036.25
2022-07-29T05:32:00.300Z,102026.78
2022-07-29T05:34:26.791Z,102035.44
2022-07-29T05:36:53.220Z,102044.44
2022-07-29T05:39:19.600Z,102035.91
2022-07-29T05:41:51.541Z,102044.63
2022-07-29T05:44:18.580Z,102039.91
2022-07-29T05:46:45.210Z,102043.38
2022-07-29T05:49:12.289Z,102035.16
2022-07-29T05:51:53.508Z,102045.38
2022-07-29T05:54:19.869Z,102044.88
2022-07-29T05:56:46.742Z,102043.38
2022-07-29T05:59:18.003Z,102044.63
2022-07-29T06:01:44.920Z,102038.03
2022-07-29T06:04:11.507Z,102040.50
2022-07-29T06:06:38.040Z,102040.97
2022-07-29T06:09:12.363Z,102041.72
2022-07-29T06:11:39.485Z,102038.22
2022-07-29T06:14:06.128Z,102043.25
2022-07-29T06:16:32.676Z,102040.50
2022-07-29T06:18:59.171Z,102035.31
2022-07-29T06:21:25.794Z,102034.09
2022-07-29T06:23:52.555Z,102036.06
2022-07-29T06:26:19.126Z,102036.81
2022-07-29T06:28:57.369Z,102041.13
2022-07-29T06:31:23.806Z,102040.03
2022-07-29T06:33:50.209Z,102042.03
2022-07-29T06:36:16.685Z,102034.88
2022-07-29T06:38:49.426Z,102030.16
2022-07-29T06:41:18.155Z,102037.44
2022-07-29T06:43:51.785Z,102041.53
2022-07-29T06:46:21.852Z,102030.13
2022-07-29T06:48:48.725Z,102024.66
2022-07-29T06:51:15.503Z,102035.13
2022-07-29T06:53:59.930Z,102031.31
2022-07-29T06:56:29.616Z,102024.19
2022-07-29T06:58:56.020Z,102028.41
2022-07-29T07:01:22.601Z,102025.25
2022-07-29T07:03:49.122Z,102018.56
2022-07-29T07:06:15.540Z,102015.63
2022-07-29T07:08:42.016Z,102016.53
2022-07-29T07:11:08.656Z,102019.75
2022-07-29T07:13:36.601Z,102020.03
2022-07-29T07:16:03.805Z,102016.09
2022-07-29T07:18:30.235Z,102015.63
2022-07-29T07:20:57.626Z,102016.38
2022-07-29T07:23:24.432Z,102016.53
2022-07-29T07:25:50.853Z,102013.06
2022-07-29T07:28:17.280Z,102010.91
2022-07-29T07:30:43.876Z,102011.97
2022-07-29T07:33:10.290Z,102006.50
2022-07-29T07:35:36.740Z,102008.47
2022-07-29T07:38:03.240Z,102004.81
2022-07-29T07:40:29.635Z,102005.84
2022-07-29T07:42:56.091Z,101997.47
2022-07-29T07:45:22.959Z,102014.66
2022-07-29T07:47:49.411Z,102021.94
2022-07-29T07:50:18.870Z,102018.00
2022-07-29T07:52:53.628Z,102010.03
2022-07-29T07:55:20.294Z,101995.16
2022-07-29T07:57:46.836Z,102009.28
2022-07-29T08:00:14.429Z,102007.59
2022-07-29T08:02:40.952Z,101999.69
2022-07-29T08:05:12.559Z,102004.25
2022-07-29T08:07:39.359Z,102001.00
2022-07-29T08:10:06.171Z,102006.31
2022-07-29T08:12:32.591Z,102013.91
2022-07-29T08:14:59.035Z,102007.50
2022-07-29T08:17:25.506Z,101999.41
2022-07-29T08:19:54.998Z,101998.75
2022-07-29T08:22:21.414Z,102000.84
2022-07-29T08:24:53.435Z,101996.97
2022-07-29T08:27:42.577Z,101990.56
2022-07-29T08:30:08.294Z,101996.47
2022-07-29T08:32:52.682Z,101996.72
2022-07-29T08:35:21.022Z,102001.66
2022-07-29T08:37:47.536Z,101993.25
2022-07-29T08:40:15.121Z,101995.47
2022-07-29T08:42:41.617Z,101990.81
2022-07-29T08:45:08.376Z,101995.34
2022-07-29T08:47:37.139Z,101992.25
2022-07-29T08:50:03.775Z,101993.84
2022-07-29T08:52:33.864Z,101988.66
2022-07-29T08:55:00.615Z,101992.25
2022-07-29T08:57:27.353Z,101991.75
2022-07-29T08:59:55.201Z,101993.56
2022-07-29T09:02:22.623Z,101984.84
2022-07-29T09:04:49.354Z,101981.16
2022-07-29T09:07:19.583Z,101979.47
2022-07-29T09:09:46.009Z,101982.97
2022-07-29T09:12:12.730Z,101976.50
2022-07-29T09:14:39.607Z,101976.81
2022-07-29T09:17:06.870Z,101973.28
2022-07-29T09:19:37.474Z,101978.31
2022-07-29T09:22:06.158Z,101977.81
2022-07-29T09:24:35.625Z,101981.91
2022-07-29T09:27:02.873Z,101978.69
2022-07-29T09:29:32.210Z,101978.97
2022-07-29T09:32:06.926Z,101968.28
2022-07-29T09:34:33.398Z,101975.53
2022-07-29T09:36:59.859Z,101977.81
2022-07-29T09:39:29.305Z,101971.84
2022-07-29T09:41:56.800Z,101975.91
2022-07-29T09:44:27.011Z,101979.19
2022-07-29T09:46:54.808Z,101973.25
2022-07-29T09:49:21.558Z,101970.31
2022-07-29T09:51:48.546Z,101970.09
2022-07-29T09:54:28.689Z,101963.06
2022-07-29T09:56:56.620Z,101971.38
2022-07-29T09:59:27.324Z,101967.88
2022-07-29T10:01:54.136Z,101968.63
2022-07-29T10:04:21.111Z,101965.63
2022-07-29T10:07:04.714Z,101963.94
2022-07-29T10:09:31.785Z,101965.13
2022-07-29T10:12:09.108Z,101956.88
2022-07-29T10:14:36.583Z,101959.63
2022-07-29T10:17:04.045Z,101955.41
2022-07-29T10:19:31.903Z,101957.38
2022-07-29T10:22:02.462Z,101947.16
2022-07-29T10:24:30.226Z,101951.16
2022-07-29T10:26:57.222Z,101947.16
2022-07-29T10:29:24.401Z,101944.41
2022-07-29T10:31:59.083Z,101938.41
2022-07-29T10:34:31.496Z,101936.19
2022-07-29T10:37:08.409Z,101934.16
2022-07-29T10:42:34.341Z,101935.41
2022-07-29T10:45:01.926Z,101931.91
2022-07-29T10:47:28.679Z,101935.91
2022-07-29T10:50:03.840Z,101931.91
2022-07-29T10:52:49.116Z,101925.38
2022-07-29T10:55:39.420Z,101917.41
2022-07-29T10:58:15.480Z,101916.19
2022-07-29T11:00:45.702Z,101921.19
2022-07-29T11:03:32.265Z,101921.41
2022-07-29T11:06:00.200Z,101921.19
2022-07-29T11:08:28.015Z,101922.22
2022-07-29T11:11:15.838Z,101917.97
2022-07-29T11:13:52.274Z,101917.00
2022-07-29T11:16:21.279Z,101903.56
2022-07-29T11:19:06.577Z,101914.34
2022-07-29T11:21:54.203Z,101907.63
2022-07-29T11:24:32.479Z,101904.16
2022-07-29T11:27:13.172Z,101904.72
2022-07-29T11:29:51.086Z,101916.72
2022-07-29T11:35:37.435Z,101899.28
2022-07-29T11:38:24.776Z,101886.56
2022-07-29T11:41:13.630Z,101888.09
2022-07-29T11:43:47.395Z,101884.84
2022-07-29T11:46:17.704Z,101886.34
2022-07-29T11:48:52.210Z,101886.34
2022-07-29T11:51:21.441Z,101884.63
2022-07-29T11:54:04.262Z,101883.41
2022-07-29T11:56:32.472Z,101871.44
2022-07-29T11:59:08.347Z,101886.69
2022-07-29T12:01:35.191Z,101884.22
2022-07-29T12:57:54.395Z,101848.50
2022-07-29T13:00:24.690Z,101845.03
2022-07-29T13:02:58.202Z,101843.00
2022-07-29T13:05:25.357Z,101842.28
2022-07-29T13:07:57.162Z,101843.00
2022-07-29T13:10:24.938Z,101829.00
2022-07-29T13:13:08.989Z,101838.47
2022-07-29T13:15:35.919Z,101826.00
2022-07-29T13:18:02.438Z,101835.28
2022-07-29T13:20:30.672Z,101829.78
2022-07-29T13:22:58.336Z,101825.03
2022-07-29T13:25:33.973Z,101822.75
2022-07-29T13:28:00.747Z,101821.03
2022-07-29T13:30:27.194Z,101819.78
2022-07-29T13:32:53.758Z,101820.56
2022-07-29T13:35:20.878Z,101819.31
2022-07-29T13:37:47.265Z,101820.06
2022-07-29T13:40:14.845Z,101813.81
2022-07-29T13:42:41.930Z,101811.84
2022-07-29T13:45:08.866Z,101810.59
2022-07-29T13:47:35.343Z,101809.84
2022-07-29T13:50:02.536Z,101816.09
2022-07-29T13:52:29.386Z,101807.84
2022-07-29T13:54:55.809Z,101807.09
2022-07-29T13:57:22.247Z,101808.09
2022-07-29T13:59:53.555Z,101800.16
2022-07-29T14:02:20.565Z,101796.13
2022-07-29T14:04:47.504Z,101796.91
2022-07-29T14:07:16.364Z,101788.16
2022-07-29T14:09:42.997Z,101792.44
2022-07-29T14:12:09.634Z,101791.19
2022-07-29T14:14:37.448Z,101791.19
2022-07-29T14:17:04.438Z,101787.22
2022-07-29T14:19:32.930Z,101779.72
2022-07-29T14:21:59.837Z,101778.97
2022-07-29T14:24:26.561Z,101774.44
2022-07-29T14:26:53.140Z,101779.44
2022-07-29T14:29:19.635Z,101778.97
2022-07-29T14:31:46.037Z,101777.69
2022-07-29T14:34:12.473Z,101779.22
2022-07-29T14:36:38.835Z,101775.25
2022-07-29T14:39:05.256Z,101775.25
2022-07-29T14:41:33.797Z,101772.00
2022-07-29T14:44:01.619Z,101776.25
2022-07-29T14:46:28.363Z,101766.50
2022-07-29T14:48:54.985Z,101773.50
2022-07-29T14:51:21.501Z,101775.50
2022-07-29T14:53:48.052Z,101768.00
2022-07-29T14:56:35.685Z,101772.00
2022-07-29T14:59:00.862Z,101765.97
2022-07-29T15:01:27.430Z,101775.25
2022-07-29T15:03:57.993Z,101771.72
2022-07-29T15:06:26.182Z,101772.97
2022-07-29T15:08:52.628Z,101772.19
2022-07-29T15:11:19.007Z,101763.72
2022-07-29T15:13:45.396Z,101766.47
2022-07-29T15:16:11.797Z,101766.19
2022-07-29T15:18:39.401Z,101760.69
2022-07-29T15:21:07.832Z,101762.44
2022-07-29T15:23:37.047Z,101751.91
2022-07-29T15:26:03.996Z,101754.66
2022-07-29T15:28:30.406Z,101751.66
2022-07-29T15:30:56.892Z,101747.41
2022-07-29T15:33:23.591Z,101750.13
2022-07-29T15:35:49.990Z,101744.38
2022-07-29T15:38:16.842Z,101744.84
2022-07-29T15:40:44.501Z,101745.38
2022-07-29T15:43:10.899Z,101742.31
2022-07-29T15:45:40.459Z,101731.84
2022-07-29T15:48:07.567Z,101737.81
2022-07-29T15:50:34.397Z,101732.03
2022-07-29T15:53:01.196Z,101727.78
2022-07-29T15:55:28.023Z,101733.78
2022-07-29T15:57:59.985Z,101732.00
2022-07-29T16:00:26.990Z,101725.75
2022-07-29T16:02:53.444Z,101725.47
2022-07-29T16:05:19.949Z,101727.47
2022-07-29T16:07:46.478Z,101727.69
2022-07-29T16:10:12.928Z,101728.16
2022-07-29T16:12:39.342Z,101721.16
2022-07-29T16:15:09.748Z,101726.38
2022-07-29T16:17:36.610Z,101723.63
2022-07-29T16:20:03.284Z,101724.88
2022-07-29T16:22:29.930Z,101722.59
2022-07-29T16:24:56.331Z,101718.84
2022-07-29T16:27:26.993Z,101720.81
2022-07-29T16:30:01.764Z,101722.09
2022-07-29T16:32:28.489Z,101713.09
2022-07-29T16:34:54.831Z,101711.56
2022-07-29T16:37:21.288Z,101709.34
2022-07-29T16:39:47.689Z,101715.28
2022-07-29T16:42:31.077Z,101715.03
2022-07-29T16:45:00.646Z,101716.50
2022-07-29T16:47:29.180Z,101711.22
2022-07-29T16:49:56.227Z,101708.47
2022-07-29T16:52:22.587Z,101716.00
2022-07-29T16:54:49.272Z,101708.22
2022-07-29T16:57:16.137Z,101709.47
2022-07-29T16:59:43.481Z,101716.19
2022-07-29T17:02:11.923Z,101717.44
2022-07-29T17:04:38.492Z,101715.91
2022-07-29T17:07:04.948Z,101704.69
2022-07-29T17:09:31.321Z,101709.38
2022-07-29T17:11:57.800Z,101700.91
2022-07-29T17:14:31.070Z,101707.91
2022-07-29T17:17:03.010Z,101705.66
2022-07-29T17:19:30.591Z,101704.13
2022-07-29T17:22:04.651Z,101708.59
2022-07-29T17:24:35.633Z,101700.84
2022-07-29T17:27:02.016Z,101704.84
2022-07-29T17:29:28.433Z,101711.84
2022-07-29T17:31:54.872Z,101717.78
2022-07-29T17:34:21.239Z,101715.03
2022-07-29T17:36:47.647Z,101718.28
2022-07-29T17:39:14.017Z,101708.53
2022-07-29T17:41:41.056Z,101717.72
2022-07-29T17:44:08.222Z,101720.94
2022-07-29T17:46:34.782Z,101717.47
2022-07-29T17:49:01.280Z,101715.97
2022-07-29T17:51:27.775Z,101731.19
2022-07-29T17:53:55.279Z,101720.69
2022-07-29T17:56:22.029Z,101722.66
2022-07-29T17:58:48.470Z,101723.63
2022-07-29T18:01:15.487Z,101715.88
2022-07-29T18:03:42.295Z,101714.84
2022-07-29T18:06:10.490Z,101727.34
2022-07-29T18:08:37.395Z,101725.81
2022-07-29T18:11:03.836Z,101725.53
2022-07-29T18:13:30.227Z,101718.84
2022-07-29T18:16:00.359Z,101720.06
2022-07-29T18:18:27.318Z,101717.06
2022-07-29T18:20:56.601Z,101706.28
2022-07-29T18:23:23.110Z,101703.53
2022-07-29T18:25:49.505Z,101711.00
2022-07-29T18:28:15.932Z,101709.22
2022-07-29T18:30:44.952Z,101703.72
2022-07-29T18:33:22.795Z,101712.94
2022-07-29T18:35:50.790Z,101712.19
2022-07-29T18:38:17.322Z,101716.16
2022-07-29T18:40:45.601Z,101716.63
2022-07-29T18:43:12.830Z,101722.59
2022-07-29T18:45:39.668Z,101721.09
2022-07-29T18:48:11.883Z,101725.34
2022-07-29T18:50:42.745Z,101720.34
2022-07-29T18:53:09.327Z,101720.03
2022-07-29T18:55:35.673Z,101724.81
2022-07-29T18:58:02.055Z,101728.03
2022-07-29T19:00:28.651Z,101730.00
2022-07-29T19:02:55.842Z,101738.72
2022-07-29T19:05:23.232Z,101731.25
2022-07-29T19:07:49.642Z,101740.69
2022-07-29T19:10:16.068Z,101739.69
2022-07-29T19:12:42.550Z,101740.44
2022-07-29T19:15:10.351Z,101743.63
2022-07-29T19:17:36.772Z,101746.38
2022-07-29T19:20:03.865Z,101753.84
2022-07-29T19:22:30.815Z,101752.38
2022-07-29T19:24:57.372Z,101751.78
2022-07-29T19:27:24.035Z,101749.06
2022-07-29T19:29:50.567Z,101751.31
2022-07-29T19:32:24.873Z,101760.78
2022-07-29T19:35:27.371Z,101764.75
2022-07-29T19:38:00.552Z,101770.25
2022-07-29T19:40:31.625Z,101767.25
2022-07-29T19:42:58.015Z,101773.16
2022-07-29T19:45:25.736Z,101773.94
2022-07-29T19:47:52.156Z,101779.16
2022-07-29T19:50:18.693Z,101776.41
2022-07-29T19:52:47.074Z,101770.94
2022-07-29T19:55:14.037Z,101779.88
2022-07-29T19:57:41.973Z,101777.63
2022-07-29T20:00:11.129Z,101774.59
2022-07-29T20:02:38.495Z,101782.38
2022-07-29T20:05:05.164Z,101783.56
2022-07-29T20:07:32.679Z,101776.59
2022-07-29T20:09:59.348Z,101779.34
2022-07-29T20:12:25.770Z,101778.59
2022-07-29T20:14:52.206Z,101779.81
2022-07-29T20:17:24.608Z,101777.56
2022-07-29T20:19:51.793Z,101774.03
2022-07-29T20:22:21.164Z,101775.28
2022-07-29T20:24:47.894Z,101778.28
2022-07-29T20:27:14.363Z,101772.81
2022-07-29T20:29:41.135Z,101775.00
2022-07-29T20:32:07.855Z,101771.00
2022-07-29T20:34:34.319Z,101775.28
2022-07-29T20:37:01.775Z,101779.25
2022-07-29T20:39:28.388Z,101772.53
2022-07-29T20:41:54.797Z,101771.00
2022-07-29T20:44:23.552Z,101784.00
2022-07-29T20:46:50.290Z,101782.47
2022-07-29T20:49:16.764Z,101781.97
2022-07-29T20:51:43.961Z,101780.00
2022-07-29T20:54:10.748Z,101778.97
2022-07-29T20:56:37.177Z,101780.19
2022-07-29T20:59:03.789Z,101786.44
2022-07-29T21:01:30.306Z,101778.19
2022-07-29T21:03:56.757Z,101778.19
2022-07-29T21:06:23.147Z,101777.44
2022-07-29T21:08:49.525Z,101777.44
2022-07-29T21:11:16.273Z,101769.72
2022-07-29T21:13:44.880Z,101779.16
2022-07-29T21:16:14.763Z,101773.69
2022-07-29T21:18:43.844Z,101782.66
2022-07-29T21:21:10.281Z,101781.16
2022-07-29T21:23:36.778Z,101768.69
2022-07-29T21:26:03.866Z,101772.94
2022-07-29T21:28:35.725Z,101766.41
2022-07-29T21:31:03.716Z,101771.44
2022-07-29T21:33:31.003Z,101770.19
2022-07-29T21:36:20.600Z,101783.13
2022-07-29T21:38:43.798Z,101782.84
2022-07-29T21:41:12.445Z,101782.59
2022-07-29T21:43:41.757Z,101785.16
2022-07-29T21:46:08.523Z,101779.09
2022-07-29T21:48:34.935Z,101778.59
2022-07-29T21:51:01.432Z,101778.59
2022-07-29T21:53:28.098Z,101779.34
2022-07-29T21:55:55.496Z,101776.34
2022-07-29T21:58:22.891Z,101775.59
2022-07-29T22:00:49.789Z,101785.34
2022-07-29T22:03:16.374Z,101779.84
2022-07-29T22:05:42.831Z,101778.78
2022-07-29T22:08:09.580Z,101781.84
2022-07-29T22:10:36.043Z,101787.75
2022-07-29T22:13:03.152Z,101780.78
2022-07-29T22:15:30.126Z,101785.03
2022-07-29T22:17:56.707Z,101788.25
2022-07-29T22:20:23.161Z,101787.50
2022-07-29T22:22:49.568Z,101788.25
2022-07-29T22:25:16.017Z,101787.50
2022-07-29T22:27:43.197Z,101789.47
2022-07-29T22:30:09.932Z,101785.22
2022-07-29T22:32:36.354Z,101777.00
2022-07-29T22:35:02.719Z,101784.00
2022-07-29T22:37:29.252Z,101778.22
2022-07-29T22:39:55.744Z,101784.47
2022-07-29T22:42:22.205Z,101779.75
2022-07-29T22:44:48.619Z,101778.22
2022-07-29T22:47:15.029Z,101776.25
2022-07-29T22:49:41.454Z,101783.72
2022-07-29T22:52:09.082Z,101787.69
2022-07-29T22:54:35.509Z,101777.94
2022-07-29T22:57:02.849Z,101781.44
2022-07-29T22:59:29.393Z,101784.19
2022-07-29T23:01:55.903Z,101780.69
2022-07-29T23:04:23.762Z,101777.94
2022-07-29T23:06:50.504Z,101772.47
2022-07-29T23:09:17.050Z,101770.97
2022-07-29T23:11:43.493Z,101772.47
2022-07-29T23:14:09.921Z,101775.69
2022-07-29T23:16:36.406Z,101772.19
2022-07-29T23:19:02.842Z,101768.97
2022-07-29T23:21:29.249Z,101770.97
2022-07-29T23:23:55.636Z,101772.19
2022-07-29T23:26:22.061Z,101773.41
2022-07-29T23:28:48.412Z,101772.66
2022-07-29T23:31:14.827Z,101769.19
2022-07-29T23:33:41.440Z,101770.66
2022-07-29T23:36:07.886Z,101775.38
2022-07-29T23:38:34.304Z,101769.44
2022-07-29T23:41:02.299Z,101765.94
2022-07-29T23:43:28.901Z,101772.19
2022-07-29T23:45:56.219Z,101765.19
2022-07-29T23:48:24.670Z,101763.94
2022-07-29T23:50:51.086Z,101756.94
2022-07-29T23:53:17.631Z,101757.44
2022-07-29T23:55:44.013Z,101759.44
2022-07-29T23:58:10.400Z,101760.19
